createdAt,value
2024-04-10T00:04:28.461Z,9.9
2024-04-10T00:09:38.811Z,9.9
2024-04-10T00:14:41.311Z,9.9
2024-04-10T00:19:47.665Z,9.9
2024-04-10T00:24:54.009Z,9.9
2024-04-10T00:35:06.772Z,9.9
2024-04-10T00:40:13.200Z,9.9
2024-04-10T00:46:29.767Z,9.8
2024-04-10T00:50:29.683Z,9.8
2024-04-10T00:55:36.250Z,9.8
2024-04-10T01:00:42.618Z,9.8
2024-04-10T01:11:15.572Z,9.8
2024-04-10T01:16:02.038Z,9.8
2024-04-10T01:21:08.337Z,9.8
2024-04-10T01:26:14.769Z,9.8
2024-04-10T01:31:55.816Z,9.8
2024-04-10T01:36:52.085Z,9.8
2024-04-10T01:41:33.545Z,9.8
2024-04-10T01:46:40.984Z,9.8
2024-04-10T01:52:07.390Z,9.8
2024-04-10T01:58:05.906Z,9.7
2024-04-10T02:02:00.379Z,9.7
2024-04-10T02:07:06.813Z,9.7
2024-04-10T02:12:03.307Z,9.7
2024-04-10T02:17:23.670Z,9.7
2024-04-10T02:27:32.327Z,9.6
2024-04-10T02:32:58.923Z,9.5
2024-04-10T02:43:27.068Z,9.5
2024-04-10T02:47:58.428Z,9.5
2024-04-10T02:54:16.840Z,9.4
2024-04-10T03:03:56.001Z,9.3
2024-04-10T03:09:23.381Z,9.3
2024-04-10T03:16:04.448Z,9.3
2024-04-10T03:21:31.505Z,9.3
2024-04-10T03:26:15.132Z,9.3
2024-04-10T03:31:24.314Z,9.2
2024-04-10T03:36:27.712Z,9.2
2024-04-10T03:42:12.140Z,9.2
2024-04-10T03:47:04.591Z,9.1
2024-04-10T03:52:06.912Z,9.1
2024-04-10T03:56:43.357Z,9.1
2024-04-10T04:01:58.782Z,9.1
2024-04-10T04:07:06.097Z,9.1
2024-04-10T04:12:12.735Z,9.0
2024-04-10T04:17:19.245Z,9.0
2024-04-10T04:22:15.334Z,9.0
2024-04-10T04:27:21.718Z,9.0
2024-04-10T04:32:28.324Z,9.0
2024-04-10T04:37:43.628Z,9.0
2024-04-10T04:42:51.084Z,9.0
2024-04-10T04:47:57.876Z,9.0
2024-04-10T04:53:04.081Z,8.9
2024-04-10T04:58:10.426Z,9.0
2024-04-10T05:03:17.031Z,8.9
2024-04-10T05:08:23.232Z,9.0
2024-04-10T05:18:36.088Z,8.9
2024-04-10T05:24:06.606Z,9.0
2024-04-10T05:28:49.137Z,9.0
2024-04-10T05:33:55.645Z,9.0
2024-04-10T05:38:51.913Z,9.0
2024-04-10T05:44:08.343Z,9.0
2024-04-10T05:49:04.838Z,9.0
2024-04-10T05:54:25.107Z,9.1
2024-04-10T05:59:17.523Z,9.1
2024-04-10T06:04:33.977Z,9.1
2024-04-10T06:09:54.446Z,9.2
2024-04-10T06:14:36.940Z,9.2
2024-04-10T06:19:53.297Z,9.3
2024-04-10T06:24:49.615Z,9.4
2024-04-10T06:29:54.970Z,9.4
2024-04-10T06:35:02.395Z,9.5
2024-04-10T06:40:22.747Z,9.6
2024-04-10T06:45:25.133Z,9.7
2024-04-10T06:50:55.598Z,9.8
2024-04-10T06:55:27.880Z,9.9
2024-04-10T07:00:58.470Z,10.1
2024-04-10T07:05:50.775Z,10.1
2024-04-10T07:10:47.222Z,10.3
2024-04-10T07:16:03.785Z,10.4
2024-04-10T07:20:59.120Z,10.5
2024-04-10T07:26:16.595Z,10.6
2024-04-10T07:31:46.954Z,10.7
2024-04-10T07:36:29.274Z,10.8
2024-04-10T07:42:47.847Z,10.9
2024-04-10T07:47:02.299Z,11.1
2024-04-10T07:51:52.463Z,11.2
2024-04-10T08:02:01.365Z,11.7
2024-04-10T08:07:07.706Z,12.2
2024-04-10T08:22:25.852Z,14.6
2024-04-10T08:27:33.231Z,15.4
2024-04-10T08:32:59.763Z,15.9
2024-04-10T08:38:00.013Z,16.1
2024-04-10T08:43:12.501Z,16.2
2024-04-10T08:47:58.831Z,16.2
2024-04-10T08:53:25.124Z,16.2
2024-04-10T08:58:11.586Z,16.2
2024-04-10T09:03:18.130Z,16.2
2024-04-10T09:08:24.525Z,16.3
2024-04-10T09:13:30.927Z,16.3
2024-04-10T09:23:43.595Z,16.0
2024-04-10T09:29:15.194Z,15.9
2024-04-10T09:33:57.529Z,15.7
2024-04-10T09:39:03.693Z,15.6
2024-04-10T09:44:10.030Z,15.6
2024-04-10T09:49:16.514Z,15.5
2024-04-10T09:54:24.996Z,15.6
2024-04-10T09:59:51.586Z,15.7
2024-04-10T10:04:38.017Z,16.0
2024-04-10T10:09:46.504Z,16.4
2024-04-10T10:14:53.023Z,16.7
2024-04-10T10:19:59.321Z,17.1
2024-04-10T10:30:12.218Z,17.4
2024-04-10T10:35:42.598Z,17.5
2024-04-10T10:40:24.828Z,17.5
2024-04-10T10:45:31.174Z,17.5
2024-04-10T10:50:37.575Z,17.6
2024-04-10T10:55:44.100Z,17.7
2024-04-10T11:00:51.632Z,17.8
2024-04-10T11:05:58.058Z,18.1
2024-04-10T11:11:58.738Z,18.3
2024-04-10T11:16:09.862Z,18.4
2024-04-10T11:21:40.098Z,18.5
2024-04-10T11:26:23.650Z,18.6
2024-04-10T11:31:50.114Z,18.7
2024-04-10T11:36:36.359Z,18.9
2024-04-10T11:41:32.711Z,19.0
2024-04-10T11:46:39.212Z,19.0
2024-04-10T11:51:57.719Z,19.0
2024-04-10T11:57:04.305Z,19.0
2024-04-10T12:07:17.270Z,19.0
2024-04-10T12:12:44.026Z,19.1
2024-04-10T12:17:20.273Z,19.1
2024-04-10T12:22:36.468Z,19.1
2024-04-10T12:27:42.817Z,19.1
2024-04-10T12:32:49.284Z,19.1
2024-04-10T12:37:55.660Z,19.1
2024-04-10T12:43:22.059Z,19.0
2024-04-10T12:48:08.591Z,18.9
2024-04-10T12:53:15.043Z,18.9
2024-04-10T12:58:11.341Z,18.8
2024-04-10T13:03:27.994Z,18.9
2024-04-10T13:08:34.158Z,19.0
2024-04-10T13:13:40.474Z,19.2
2024-04-10T13:18:37.118Z,19.4
2024-04-10T13:24:17.289Z,19.6
2024-04-10T13:28:59.581Z,19.6
2024-04-10T13:34:06.083Z,19.7
2024-04-10T13:39:13.491Z,19.8
2024-04-10T13:44:39.090Z,19.9
2024-04-10T13:49:26.464Z,20.0
2024-04-10T13:54:32.842Z,20.2
2024-04-10T13:59:39.290Z,20.3
2024-04-10T14:04:45.691Z,20.5
2024-04-10T14:09:51.982Z,20.7
2024-04-10T14:14:58.381Z,20.8
2024-04-10T14:19:54.860Z,20.9
2024-04-10T14:25:01.303Z,21.0
2024-04-10T14:30:07.945Z,21.1
2024-04-10T14:35:24.356Z,21.2
2024-04-10T14:40:20.661Z,21.1
2024-04-10T14:46:01.201Z,21.1
2024-04-10T14:50:43.560Z,21.0
2024-04-10T14:55:49.832Z,21.0
2024-04-10T15:00:56.237Z,20.9
2024-04-10T15:06:02.655Z,20.8
2024-04-10T15:11:09.107Z,20.7
2024-04-10T15:16:15.419Z,20.6
2024-04-10T15:21:21.871Z,20.5
2024-04-10T15:26:28.244Z,20.4
2024-04-10T15:31:54.655Z,20.2
2024-04-10T15:37:05.080Z,20.1
2024-04-10T15:41:47.450Z,20.0
2024-04-10T15:46:43.757Z,19.9
2024-04-10T15:52:05.795Z,19.8
2024-04-10T16:07:19.501Z,19.5
2024-04-10T16:12:26.162Z,19.3
2024-04-10T16:17:32.496Z,19.2
2024-04-10T16:22:58.947Z,19.1
2024-04-10T16:27:45.310Z,18.9
2024-04-10T16:32:51.765Z,18.8
2024-04-10T16:37:58.045Z,18.6
2024-04-10T16:43:04.616Z,18.5
2024-04-10T16:48:11.014Z,18.3
2024-04-10T16:53:07.322Z,18.1
2024-04-10T17:03:20.244Z,17.7
2024-04-10T17:08:26.471Z,17.6
2024-04-10T17:14:02.940Z,17.4
2024-04-10T17:18:49.345Z,17.2
2024-04-10T17:23:55.760Z,17.0
2024-04-10T17:29:24.300Z,16.9
2024-04-10T17:34:08.863Z,16.7
2024-04-10T17:39:15.168Z,16.6
2024-04-10T17:44:21.533Z,16.4
2024-04-10T17:49:27.899Z,16.2
2024-04-10T17:54:34.278Z,16.1
2024-04-10T17:59:30.688Z,15.9
2024-04-10T18:04:51.080Z,15.8
2024-04-10T18:09:53.443Z,15.7
2024-04-10T18:14:59.990Z,15.5
2024-04-10T18:20:06.582Z,15.4
2024-04-10T18:25:12.772Z,15.2
2024-04-10T18:30:39.174Z,15.0
2024-04-10T18:35:25.575Z,14.9
2024-04-10T18:40:35.928Z,14.7
2024-04-10T18:46:12.487Z,14.6
2024-04-10T18:51:04.950Z,14.4
2024-04-10T18:55:51.404Z,14.2
2024-04-10T19:00:58.065Z,14.0
2024-04-10T19:06:04.645Z,13.9
2024-04-10T19:11:35.106Z,13.7
2024-04-10T19:16:41.437Z,13.6
2024-04-10T19:22:32.125Z,13.2
2024-04-10T19:27:39.516Z,13.2
2024-04-10T19:32:46.026Z,13.1
2024-04-10T19:37:52.274Z,13.0
2024-04-10T19:42:58.675Z,12.8
2024-04-10T19:49:01.288Z,12.6
2024-04-10T19:54:25.482Z,12.5
2024-04-10T19:58:17.798Z,12.4
2024-04-10T20:04:08.682Z,12.2
2024-04-10T20:08:20.866Z,12.1
2024-04-10T20:14:11.374Z,12.0
2024-04-10T20:18:44.223Z,11.8
2024-04-10T20:28:56.445Z,11.6
2024-04-10T20:34:03.607Z,11.5
2024-04-10T20:39:10.951Z,11.4
2024-04-10T20:44:15.588Z,11.3
2024-04-10T20:49:36.143Z,11.2
2024-04-10T20:55:02.856Z,11.1
2024-04-10T20:59:34.792Z,11.0
2024-04-10T21:06:03.373Z,10.9
2024-04-10T21:12:13.186Z,10.8
2024-04-10T21:27:07.845Z,10.8
2024-04-10T21:43:58.715Z,10.6
2024-04-10T21:48:41.225Z,10.6
2024-04-10T21:53:47.460Z,10.5
2024-04-10T21:59:17.856Z,10.4
2024-04-10T22:04:57.646Z,10.3
2024-04-10T22:08:56.727Z,10.3
2024-04-10T22:14:13.170Z,10.2
2024-04-10T22:19:39.827Z,10.2
2024-04-10T22:24:40.021Z,10.1
2024-04-10T22:29:32.382Z,10.1
2024-04-10T22:36:24.458Z,10.1
2024-04-10T22:40:31.044Z,10.0
2024-04-10T22:45:17.575Z,10.0
2024-04-10T22:50:02.394Z,10.0
2024-04-10T22:55:28.964Z,9.9
2024-04-10T23:00:15.446Z,9.9
2024-04-10T23:05:40.509Z,9.9
2024-04-10T23:10:28.226Z,9.8
2024-04-10T23:15:34.661Z,9.8
2024-04-10T23:20:41.035Z,9.8
2024-04-10T23:26:11.422Z,9.7
2024-04-10T23:30:53.803Z,9.7
2024-04-10T23:36:20.169Z,9.7
2024-04-10T23:41:10.508Z,9.7
2024-04-10T23:46:13.019Z,9.6
2024-04-10T23:51:22.961Z,9.6
2024-04-10T23:56:19.416Z,9.6
